Temp: 11.5°C   Baro: 1004.9mb
  Wind: 6.0mph   Dir: WNW (303°)
  Rain: 7.8mm (0.0mm/hr)
  Solar: 283W/m2  Hum: 92%
 
Bath Spa Weather Historical Data
Daily Summary for October 28, 2019 Units:  Both    English   Metric
Next Day »
Daily Weekly Monthly Yearly Custom
  High: Low: Average:
Temperature: 50.7 °F /  10.4 °C 32.9 °F /  0.5 °C 41.9 °F /  5.5 °C
Dew Point: 44.2 °F /  6.8 °C 31.3 °F /  -0.4 °C 38.5 °F /  3.6 °C
Humidity: 95% 74% 88%
Wind Speed: 11mph /  17.7km/h - 1.8mph /  2.9km/h
Wind Gust: 14mph /  22.5km/h - -
Wind direction- - East
Pressure: 30.3 in /  1026.0 hPa 30.2 in /  1023.2 hPa -
Precipitation: 0.01 in /  0.3 mm    
Historical Graphs
 
 
Tabular Data for October 28, 2019
Time Temperature Dew Point Pressure Wind direction Wind Speed Wind Gust Humidity Rainfall Rate (Hourly) solar
00:00 36.1 °F /  2.3 °C 34.3 °F /  1.3 °C 30.3in /  1026.0hPa Calm     93% 0in /  0.0mm 0.00 W/m2
00:05 36 °F /  2.2 °C 34.2 °F /  1.2 °C 30.3in /  1026.0hPa Calm     93% 0in /  0.0mm 0.00 W/m2
00:10 36 °F /  2.2 °C 34.2 °F /  1.2 °C 30.3in /  1026.0hPa Calm   1mph /  1.6km/h 93% 0in /  0.0mm 0.00 W/m2
00:15 36 °F /  2.2 °C 34.2 °F /  1.2 °C 30.3in /  1026.0hPa Calm     93% 0in /  0.0mm 0.00 W/m2
00:20 35.8 °F /  2.1 °C 34 °F /  1.1 °C 30.3in /  1026.0hPa Calm     93% 0in /  0.0mm 0.00 W/m2
00:25 35.8 °F /  2.1 °C 34 °F /  1.1 °C 30.3in /  1026.0hPa Calm     93% 0in /  0.0mm 0.00 W/m2
00:30 35.4 °F /  1.9 °C 33.6 °F /  0.9 °C 30.3in /  1026.0hPa Calm     93% 0in /  0.0mm 0.00 W/m2
00:35 35.4 °F /  1.9 °C 33.6 °F /  0.9 °C 30.3in /  1026.0hPa Calm     93% 0in /  0.0mm 0.00 W/m2
00:40 35.4 °F /  1.9 °C 33.6 °F /  0.9 °C 30.3in /  1026.0hPa Calm     93% 0in /  0.0mm 0.00 W/m2
00:45 35.4 °F /  1.9 °C 33.6 °F /  0.9 °C 30.3in /  1026.0hPa Calm     93% 0in /  0.0mm 0.00 W/m2
00:50 35.4 °F /  1.9 °C 33.6 °F /  0.9 °C 30.3in /  1026.0hPa Calm     93% 0in /  0.0mm 0.00 W/m2
00:55 35.4 °F /  1.9 °C 33.6 °F /  0.9 °C 30.3in /  1026.0hPa Calm     93% 0in /  0.0mm 0.00 W/m2
01:00 35.2 °F /  1.8 °C 33.4 °F /  0.8 °C 30.3in /  1025.6hPa Calm     93% 0in /  0.0mm 0.00 W/m2
01:05 35.2 °F /  1.8 °C 33.4 °F /  0.8 °C 30.3in /  1026.0hPa Calm     93% 0in /  0.0mm 0.00 W/m2
01:10 35.2 °F /  1.8 °C 33.4 °F /  0.8 °C 30.3in /  1025.6hPa Calm     93% 0in /  0.0mm 0.00 W/m2
01:15 35.1 °F /  1.7 °C 33.3 °F /  0.7 °C 30.3in /  1025.6hPa Calm     93% 0in /  0.0mm 0.00 W/m2
01:20 34.9 °F /  1.6 °C 33.1 °F /  0.6 °C 30.3in /  1025.6hPa Calm     93% 0in /  0.0mm 0.00 W/m2
01:25 34.7 °F /  1.5 °C 32.9 °F /  0.5 °C 30.3in /  1025.6hPa Calm     93% 0in /  0.0mm 0.00 W/m2
01:30 34.5 °F /  1.4 °C 32.7 °F /  0.4 °C 30.3in /  1025.6hPa Calm     93% 0in /  0.0mm 0.00 W/m2
01:35 34.5 °F /  1.4 °C 32.7 °F /  0.4 °C 30.3in /  1025.6hPa Calm     93% 0in /  0.0mm 0.00 W/m2
01:40 34.5 °F /  1.4 °C 32.7 °F /  0.4 °C 30.3in /  1025.6hPa Calm     93% 0in /  0.0mm 0.00 W/m2
01:45 34.5 °F /  1.4 °C 32.7 °F /  0.4 °C 30.3in /  1025.6hPa Calm     93% 0in /  0.0mm 0.00 W/m2
01:50 34.3 °F /  1.3 °C 32.5 °F /  0.3 °C 30.3in /  1025.6hPa Calm   1mph /  1.6km/h 93% 0.01in /  0.3mm 0.00 W/m2
01:55 34.3 °F /  1.3 °C 32.5 °F /  0.3 °C 30.3in /  1025.6hPa Calm     93% 0.01in /  0.3mm 0.00 W/m2
02:00 34.3 °F /  1.3 °C 32.5 °F /  0.3 °C 30.3in /  1025.6hPa Calm     93% 0.01in /  0.3mm 0.00 W/m2
02:05 34.3 °F /  1.3 °C 32.5 °F /  0.3 °C 30.3in /  1025.6hPa Calm     93% 0.01in /  0.3mm 0.00 W/m2
02:10 34.3 °F /  1.3 °C 32.5 °F /  0.3 °C 30.3in /  1025.6hPa Calm     93% 0.01in /  0.3mm 0.00 W/m2
02:15 34.3 °F /  1.3 °C 32.5 °F /  0.3 °C 30.3in /  1025.6hPa Calm     93% 0.01in /  0.3mm 0.00 W/m2
02:20 34.2 °F /  1.2 °C 32.4 °F /  0.2 °C 30.3in /  1025.6hPa Calm     93% 0.01in /  0.3mm 0.00 W/m2
02:25 34.2 °F /  1.2 °C 32.4 °F /  0.2 °C 30.3in /  1025.6hPa Calm     93% 0.01in /  0.3mm 0.00 W/m2
02:30 34.2 °F /  1.2 °C 32.4 °F /  0.2 °C 30.3in /  1025.6hPa Calm     93% 0.01in /  0.3mm 0.00 W/m2
02:35 34 °F /  1.1 °C 32.4 °F /  0.2 °C 30.3in /  1025.6hPa Calm     94% 0.01in /  0.3mm 0.00 W/m2
02:40 33.8 °F /  1.0 °C 32.2 °F /  0.1 °C 30.3in /  1025.6hPa Calm     94% 0.01in /  0.3mm 0.00 W/m2
02:45 34 °F /  1.1 °C 32.4 °F /  0.2 °C 30.3in /  1025.6hPa Calm     94% 0.01in /  0.3mm 0.00 W/m2
02:50 34 °F /  1.1 °C 32.4 °F /  0.2 °C 30.3in /  1025.6hPa Calm     94% 0in /  0.0mm 0.00 W/m2
02:55 33.8 °F /  1.0 °C 32.2 °F /  0.1 °C 30.3in /  1025.6hPa Calm     94% 0in /  0.0mm 0.00 W/m2
03:00 33.6 °F /  0.9 °C 32 °F /  0.0 °C 30.3in /  1025.6hPa Calm     94% 0in /  0.0mm 0.00 W/m2
03:05 33.6 °F /  0.9 °C 32 °F /  0.0 °C 30.3in /  1025.6hPa Calm     94% 0in /  0.0mm 0.00 W/m2
03:10 33.6 °F /  0.9 °C 31.8 °F /  -0.1 °C 30.3in /  1025.3hPa Calm     93% 0in /  0.0mm 0.00 W/m2
03:15 33.4 °F /  0.8 °C 31.8 °F /  -0.1 °C 30.3in /  1025.6hPa Calm     94% 0in /  0.0mm 0.00 W/m2
03:20 33.4 °F /  0.8 °C 31.8 °F /  -0.1 °C 30.3in /  1025.3hPa Calm     94% 0in /  0.0mm 0.00 W/m2
03:25 33.4 °F /  0.8 °C 31.8 °F /  -0.1 °C 30.3in /  1025.3hPa Calm     94% 0in /  0.0mm 0.00 W/m2
03:30 33.4 °F /  0.8 °C 31.8 °F /  -0.1 °C 30.3in /  1025.3hPa Calm     94% 0in /  0.0mm 0.00 W/m2
03:35 33.3 °F /  0.7 °C 31.6 °F /  -0.2 °C 30.3in /  1025.6hPa Calm     94% 0in /  0.0mm 0.00 W/m2
03:40 33.3 °F /  0.7 °C 31.6 °F /  -0.2 °C 30.3in /  1025.3hPa Calm     94% 0in /  0.0mm 0.00 W/m2
03:45 33.3 °F /  0.7 °C 31.6 °F /  -0.2 °C 30.3in /  1025.3hPa Calm     94% 0in /  0.0mm 0.00 W/m2
03:50 33.3 °F /  0.7 °C 31.6 °F /  -0.2 °C 30.3in /  1025.3hPa Calm     94% 0in /  0.0mm 0.00 W/m2
03:55 33.3 °F /  0.7 °C 31.6 °F /  -0.2 °C 30.3in /  1025.3hPa Calm     94% 0in /  0.0mm 0.00 W/m2
04:00 33.3 °F /  0.7 °C 31.6 °F /  -0.2 °C 30.3in /  1025.3hPa Calm     94% 0in /  0.0mm 0.00 W/m2
04:05 33.3 °F /  0.7 °C 31.6 °F /  -0.2 °C 30.3in /  1025.6hPa Calm     94% 0in /  0.0mm 0.00 W/m2
04:10 33.1 °F /  0.6 °C 31.5 °F /  -0.3 °C 30.3in /  1025.3hPa Calm     94% 0in /  0.0mm 0.00 W/m2
04:15 32.9 °F /  0.5 °C 31.3 °F /  -0.4 °C 30.3in /  1025.6hPa Calm     94% 0in /  0.0mm 0.00 W/m2
04:20 32.9 °F /  0.5 °C 31.3 °F /  -0.4 °C 30.3in /  1025.6hPa Calm     94% 0in /  0.0mm 0.00 W/m2
04:25 32.9 °F /  0.5 °C 31.3 °F /  -0.4 °C 30.3in /  1025.3hPa Calm     94% 0in /  0.0mm 0.00 W/m2
04:30 32.9 °F /  0.5 °C 31.3 °F /  -0.4 °C 30.3in /  1025.3hPa Calm     94% 0in /  0.0mm 0.00 W/m2
04:35 33.1 °F /  0.6 °C 31.5 °F /  -0.3 °C 30.3in /  1025.3hPa Calm     94% 0in /  0.0mm 0.00 W/m2
04:40 33.1 °F /  0.6 °C 31.5 °F /  -0.3 °C 30.3in /  1025.6hPa Calm     94% 0in /  0.0mm 0.00 W/m2
04:45 32.9 °F /  0.5 °C 31.3 °F /  -0.4 °C 30.3in /  1025.6hPa Calm     94% 0in /  0.0mm 0.00 W/m2
04:50 32.9 °F /  0.5 °C 31.3 °F /  -0.4 °C 30.3in /  1025.6hPa Calm     94% 0in /  0.0mm 0.00 W/m2
04:55 32.9 °F /  0.5 °C 31.3 °F /  -0.4 °C 30.3in /  1025.6hPa Calm     94% 0in /  0.0mm 0.00 W/m2
05:00 32.9 °F /  0.5 °C 31.3 °F /  -0.4 °C 30.3in /  1025.6hPa Calm     94% 0in /  0.0mm 0.00 W/m2
05:05 32.9 °F /  0.5 °C 31.3 °F /  -0.4 °C 30.3in /  1025.6hPa Calm     94% 0in /  0.0mm 0.00 W/m2
05:10 33.1 °F /  0.6 °C 31.5 °F /  -0.3 °C 30.3in /  1025.3hPa Calm     94% 0in /  0.0mm 0.00 W/m2
05:15 32.9 °F /  0.5 °C 31.3 °F /  -0.4 °C 30.3in /  1025.3hPa Calm     94% 0in /  0.0mm 0.00 W/m2
05:20 32.9 °F /  0.5 °C 31.3 °F /  -0.4 °C 30.3in /  1025.3hPa Calm     94% 0in /  0.0mm 0.00 W/m2
05:25 33.1 °F /  0.6 °C 31.5 °F /  -0.3 °C 30.3in /  1025.3hPa Calm     94% 0in /  0.0mm 0.00 W/m2
05:30 33.1 °F /  0.6 °C 31.5 °F /  -0.3 °C 30.3in /  1025.3hPa Calm     94% 0in /  0.0mm 0.00 W/m2
05:35 33.1 °F /  0.6 °C 31.5 °F /  -0.3 °C 30.3in /  1025.3hPa Calm     94% 0in /  0.0mm 0.00 W/m2
05:40 33.1 °F /  0.6 °C 31.5 °F /  -0.3 °C 30.3in /  1025.3hPa Calm     94% 0in /  0.0mm 0.00 W/m2
05:45 33.1 °F /  0.6 °C 31.5 °F /  -0.3 °C 30.3in /  1025.3hPa Calm     94% 0in /  0.0mm 0.00 W/m2
05:50 33.3 °F /  0.7 °C 31.6 °F /  -0.2 °C 30.3in /  1025.3hPa Calm     94% 0in /  0.0mm 0.00 W/m2
05:55 33.1 °F /  0.6 °C 31.5 °F /  -0.3 °C 30.3in /  1024.9hPa Calm     94% 0in /  0.0mm 0.00 W/m2
06:00 33.3 °F /  0.7 °C 31.6 °F /  -0.2 °C 30.3in /  1024.9hPa Calm     94% 0in /  0.0mm 0.00 W/m2
06:05 33.3 °F /  0.7 °C 31.6 °F /  -0.2 °C 30.3in /  1024.9hPa Calm     94% 0in /  0.0mm 0.00 W/m2
06:10 33.3 °F /  0.7 °C 31.6 °F /  -0.2 °C 30.3in /  1024.9hPa Calm     94% 0in /  0.0mm 0.00 W/m2
06:15 33.1 °F /  0.6 °C 31.5 °F /  -0.3 °C 30.3in /  1024.9hPa Calm     94% 0in /  0.0mm 0.00 W/m2
06:20 33.3 °F /  0.7 °C 31.6 °F /  -0.2 °C 30.3in /  1024.9hPa Calm     94% 0in /  0.0mm 0.00 W/m2
06:25 33.3 °F /  0.7 °C 31.6 °F /  -0.2 °C 30.3in /  1025.3hPa Calm     94% 0in /  0.0mm 0.00 W/m2
06:30 33.3 °F /  0.7 °C 31.6 °F /  -0.2 °C 30.3in /  1024.9hPa Calm   1mph /  1.6km/h 94% 0in /  0.0mm 0.00 W/m2
06:35 33.4 °F /  0.8 °C 31.8 °F /  -0.1 °C 30.3in /  1024.9hPa Calm     94% 0in /  0.0mm 0.00 W/m2
06:40 33.4 °F /  0.8 °C 31.8 °F /  -0.1 °C 30.3in /  1024.9hPa Calm     94% 0in /  0.0mm 0.00 W/m2
06:45 33.6 °F /  0.9 °C 32 °F /  0.0 °C 30.3in /  1024.9hPa Calm     94% 0in /  0.0mm 0.00 W/m2
06:50 33.4 °F /  0.8 °C 31.8 °F /  -0.1 °C 30.3in /  1024.9hPa Calm     94% 0in /  0.0mm 0.00 W/m2
06:55 33.4 °F /  0.8 °C 31.8 °F /  -0.1 °C 30.3in /  1024.9hPa Calm     94% 0in /  0.0mm 5.00 W/m2
07:00 33.4 °F /  0.8 °C 31.8 °F /  -0.1 °C 30.3in /  1024.9hPa Calm     94% 0in /  0.0mm 7.00 W/m2
07:05 33.4 °F /  0.8 °C 31.8 °F /  -0.1 °C 30.3in /  1024.9hPa Calm     94% 0in /  0.0mm 11.00 W/m2
07:10 33.4 °F /  0.8 °C 31.8 °F /  -0.1 °C 30.3in /  1024.9hPa Calm     94% 0in /  0.0mm 14.00 W/m2
07:15 33.3 °F /  0.7 °C 31.6 °F /  -0.2 °C 30.3in /  1025.3hPa Calm     94% 0in /  0.0mm 19.00 W/m2
07:20 33.3 °F /  0.7 °C 31.6 °F /  -0.2 °C 30.3in /  1025.3hPa Calm     94% 0in /  0.0mm 25.00 W/m2
07:25 33.4 °F /  0.8 °C 31.8 °F /  -0.1 °C 30.3in /  1025.3hPa Calm     94% 0in /  0.0mm 30.00 W/m2
07:30 33.4 °F /  0.8 °C 31.8 °F /  -0.1 °C 30.3in /  1025.3hPa Calm   1mph /  1.6km/h 94% 0in /  0.0mm 35.00 W/m2
07:35 33.6 °F /  0.9 °C 32 °F /  0.0 °C 30.3in /  1025.3hPa Calm     94% 0in /  0.0mm 42.00 W/m2
07:40 33.8 °F /  1.0 °C 32.2 °F /  0.1 °C 30.3in /  1025.3hPa Calm     94% 0in /  0.0mm 47.00 W/m2
07:45 34.2 °F /  1.2 °C 32.5 °F /  0.3 °C 30.3in /  1025.3hPa Calm     94% 0in /  0.0mm 49.00 W/m2
07:50 34.2 °F /  1.2 °C 32.5 °F /  0.3 °C 30.3in /  1025.6hPa Calm     94% 0in /  0.0mm 53.00 W/m2
07:55 34.3 °F /  1.3 °C 33.1 °F /  0.6 °C 30.3in /  1025.3hPa Calm     95% 0in /  0.0mm 58.00 W/m2
08:00 34.3 °F /  1.3 °C 33.1 °F /  0.6 °C 30.3in /  1025.3hPa Calm     95% 0in /  0.0mm 62.00 W/m2
08:05 34.5 °F /  1.4 °C 33.3 °F /  0.7 °C 30.3in /  1025.3hPa Calm     95% 0in /  0.0mm 67.00 W/m2
08:10 34.9 °F /  1.6 °C 33.6 °F /  0.9 °C 30.3in /  1025.3hPa Calm     95% 0in /  0.0mm 74.00 W/m2
08:15 34.9 °F /  1.6 °C 33.6 °F /  0.9 °C 30.3in /  1025.3hPa Calm     95% 0in /  0.0mm 83.00 W/m2
08:20 35.2 °F /  1.8 °C 34 °F /  1.1 °C 30.3in /  1025.3hPa Calm     95% 0in /  0.0mm 88.00 W/m2
08:25 36 °F /  2.2 °C 34.7 °F /  1.5 °C 30.3in /  1025.3hPa Calm   1mph /  1.6km/h 95% 0in /  0.0mm 97.00 W/m2
08:30 36 °F /  2.2 °C 34.7 °F /  1.5 °C 30.3in /  1025.3hPa Calm     95% 0in /  0.0mm 97.00 W/m2
08:35 36.1 °F /  2.3 °C 34.9 °F /  1.6 °C 30.3in /  1025.3hPa Calm     95% 0in /  0.0mm 100.00 W/m2
08:40 36.5 °F /  2.5 °C 35.2 °F /  1.8 °C 30.3in /  1024.9hPa Calm     95% 0in /  0.0mm 111.00 W/m2
08:45 37.2 °F /  2.9 °C 36 °F /  2.2 °C 30.3in /  1024.9hPa Calm   1mph /  1.6km/h 95% 0in /  0.0mm 19.00 W/m2
08:50 37.9 °F /  3.3 °C 36.7 °F /  2.6 °C 30.3in /  1025.3hPa Calm   3mph /  4.8km/h 95% 0in /  0.0mm 135.00 W/m2
08:55 38.7 °F /  3.7 °C 37.4 °F /  3.0 °C 30.3in /  1024.9hPa Calm   2mph /  3.2km/h 95% 0in /  0.0mm 137.00 W/m2
09:00 39.4 °F /  4.1 °C 38.1 °F /  3.4 °C 30.3in /  1025.3hPa North 0.9mph /  1.4km/h 3mph /  4.8km/h 95% 0in /  0.0mm 130.00 W/m2
09:05 39.6 °F /  4.2 °C 38.3 °F /  3.5 °C 30.3in /  1024.9hPa Calm   1mph /  1.6km/h 95% 0in /  0.0mm 132.00 W/m2
09:10 40.1 °F /  4.5 °C 38.8 °F /  3.8 °C 30.3in /  1025.3hPa Calm   1mph /  1.6km/h 95% 0in /  0.0mm 139.00 W/m2
09:15 40.8 °F /  4.9 °C 39.6 °F /  4.2 °C 30.3in /  1025.3hPa Calm     95% 0in /  0.0mm 153.00 W/m2
09:20 41.2 °F /  5.1 °C 39.9 °F /  4.4 °C 30.3in /  1025.3hPa Calm     95% 0in /  0.0mm 169.00 W/m2
09:25 42.3 °F /  5.7 °C 41 °F /  5.0 °C 30.3in /  1025.3hPa Calm   2mph /  3.2km/h 95% 0in /  0.0mm 167.00 W/m2
09:30 42.4 °F /  5.8 °C 41.2 °F /  5.1 °C 30.3in /  1024.9hPa East 6.9mph /  11.1km/h 7mph /  11.3km/h 95% 0in /  0.0mm 165.00 W/m2
09:35 42.8 °F /  6.0 °C 41.5 °F /  5.3 °C 30.3in /  1025.3hPa Calm   3mph /  4.8km/h 95% 0in /  0.0mm 171.00 W/m2
09:40 43 °F /  6.1 °C 41.7 °F /  5.4 °C 30.3in /  1024.9hPa Calm   1mph /  1.6km/h 95% 0in /  0.0mm 163.00 W/m2
09:45 43.5 °F /  6.4 °C 41.9 °F /  5.5 °C 30.3in /  1024.9hPa Calm   1mph /  1.6km/h 94% 0in /  0.0mm 167.00 W/m2
09:50 43.5 °F /  6.4 °C 41.9 °F /  5.5 °C 30.3in /  1024.9hPa Calm   2mph /  3.2km/h 94% 0in /  0.0mm 174.00 W/m2
09:55 43.5 °F /  6.4 °C 41.7 °F /  5.4 °C 30.3in /  1024.9hPa Calm   2mph /  3.2km/h 93% 0in /  0.0mm 206.00 W/m2
10:00 44.4 °F /  6.9 °C 42.4 °F /  5.8 °C 30.3in /  1025.3hPa East 0.9mph /  1.4km/h 1mph /  1.6km/h 93% 0in /  0.0mm 214.00 W/m2
10:05 44.8 °F /  7.1 °C 42.6 °F /  5.9 °C 30.3in /  1025.3hPa Calm   4mph /  6.4km/h 92% 0in /  0.0mm 174.00 W/m2
10:10 44.6 °F /  7.0 °C 42.1 °F /  5.6 °C 30.3in /  1025.3hPa East 2mph /  3.2km/h 4mph /  6.4km/h 91% 0in /  0.0mm 169.00 W/m2
10:15 44.4 °F /  6.9 °C 41.7 °F /  5.4 °C 30.3in /  1025.3hPa Calm   2mph /  3.2km/h 90% 0in /  0.0mm 174.00 W/m2
10:20 44.2 °F /  6.8 °C 41.5 °F /  5.3 °C 30.3in /  1025.3hPa East 0.9mph /  1.4km/h 2mph /  3.2km/h 90% 0in /  0.0mm 195.00 W/m2
10:25 44.4 °F /  6.9 °C 41.4 °F /  5.2 °C 30.3in /  1025.3hPa Calm   2mph /  3.2km/h 89% 0in /  0.0mm 178.00 W/m2
10:30 44.6 °F /  7.0 °C 41.5 °F /  5.3 °C 30.3in /  1025.3hPa East 0.9mph /  1.4km/h 3mph /  4.8km/h 89% 0in /  0.0mm 181.00 W/m2
10:35 45 °F /  7.2 °C 41.9 °F /  5.5 °C 30.3in /  1025.3hPa East 2.9mph /  4.7km/h 3mph /  4.8km/h 89% 0in /  0.0mm 193.00 W/m2
10:40 45.1 °F /  7.3 °C 42.1 °F /  5.6 °C 30.3in /  1025.3hPa Calm   1mph /  1.6km/h 89% 0in /  0.0mm 227.00 W/m2
10:45 45 °F /  7.2 °C 41.5 °F /  5.3 °C 30.3in /  1025.3hPa East 2mph /  3.2km/h 4mph /  6.4km/h 88% 0in /  0.0mm 244.00 W/m2
10:50 45.3 °F /  7.4 °C 41.9 °F /  5.5 °C 30.3in /  1024.9hPa East 0.9mph /  1.4km/h 4mph /  6.4km/h 88% 0in /  0.0mm 241.00 W/m2
10:55 45.9 °F /  7.7 °C 42.4 °F /  5.8 °C 30.3in /  1024.9hPa East 0.9mph /  1.4km/h 2mph /  3.2km/h 88% 0in /  0.0mm 258.00 W/m2
11:00 46 °F /  7.8 °C 42.4 °F /  5.8 °C 30.3in /  1024.9hPa East 2mph /  3.2km/h 5mph /  8.0km/h 87% 0in /  0.0mm 232.00 W/m2
11:05 45.9 °F /  7.7 °C 42.3 °F /  5.7 °C 30.3in /  1024.9hPa East 0.9mph /  1.4km/h 3mph /  4.8km/h 87% 0in /  0.0mm 206.00 W/m2
11:10 46.8 °F /  8.2 °C 43.2 °F /  6.2 °C 30.3in /  1024.9hPa Calm   3mph /  4.8km/h 87% 0in /  0.0mm 199.00 W/m2
11:15 46.2 °F /  7.9 °C 42.3 °F /  5.7 °C 30.3in /  1024.9hPa Calm   1mph /  1.6km/h 86% 0in /  0.0mm 197.00 W/m2
11:20 46.8 °F /  8.2 °C 42.8 °F /  6.0 °C 30.3in /  1024.9hPa Calm     86% 0in /  0.0mm 204.00 W/m2
11:25 47.1 °F /  8.4 °C 43.2 °F /  6.2 °C 30.3in /  1024.9hPa East 0.9mph /  1.4km/h 5mph /  8.0km/h 86% 0in /  0.0mm 179.00 W/m2
11:30 47.1 °F /  8.4 °C 43.2 °F /  6.2 °C 30.3in /  1024.9hPa Calm   5mph /  8.0km/h 86% 0in /  0.0mm 167.00 W/m2
11:35 46.8 °F /  8.2 °C 42.4 °F /  5.8 °C 30.3in /  1024.9hPa NE 6.9mph /  11.1km/h 8mph /  12.9km/h 85% 0in /  0.0mm 160.00 W/m2
11:40 46.8 °F /  8.2 °C 42.4 °F /  5.8 °C 30.3in /  1024.9hPa ENE 4mph /  6.4km/h 7mph /  11.3km/h 85% 0in /  0.0mm 163.00 W/m2
11:45 46.8 °F /  8.2 °C 42.4 °F /  5.8 °C 30.3in /  1024.9hPa Calm   4mph /  6.4km/h 85% 0in /  0.0mm 179.00 W/m2
11:50 46.9 °F /  8.3 °C 42.6 °F /  5.9 °C 30.3in /  1024.9hPa Calm   3mph /  4.8km/h 85% 0in /  0.0mm 199.00 W/m2
11:55 47.1 °F /  8.4 °C 42.8 °F /  6.0 °C 30.3in /  1024.9hPa ENE 2mph /  3.2km/h 2mph /  3.2km/h 85% 0in /  0.0mm 216.00 W/m2
12:00 47.3 °F /  8.5 °C 43 °F /  6.1 °C 30.3in /  1024.6hPa ENE 2mph /  3.2km/h 4mph /  6.4km/h 85% 0in /  0.0mm 236.00 W/m2
12:05 47.7 °F /  8.7 °C 43 °F /  6.1 °C 30.3in /  1024.6hPa ENE 2.9mph /  4.7km/h 3mph /  4.8km/h 84% 0in /  0.0mm 221.00 W/m2
12:10 47.7 °F /  8.7 °C 43 °F /  6.1 °C 30.3in /  1024.3hPa East 2.9mph /  4.7km/h 7mph /  11.3km/h 84% 0in /  0.0mm 236.00 W/m2
12:15 48 °F /  8.9 °C 43.3 °F /  6.3 °C 30.3in /  1024.3hPa East 6.9mph /  11.1km/h 8mph /  12.9km/h 84% 0in /  0.0mm 260.00 W/m2
12:20 48.4 °F /  9.1 °C 43.5 °F /  6.4 °C 30.2in /  1023.9hPa ESE 4.9mph /  7.9km/h 5mph /  8.0km/h 83% 0in /  0.0mm 265.00 W/m2
12:25 49.1 °F /  9.5 °C 44.2 °F /  6.8 °C 30.2in /  1023.9hPa ENE 2mph /  3.2km/h 5mph /  8.0km/h 83% 0in /  0.0mm 290.00 W/m2
12:30 49.3 °F /  9.6 °C 44.1 °F /  6.7 °C 30.2in /  1023.9hPa Calm   4mph /  6.4km/h 82% 0in /  0.0mm 304.00 W/m2
12:35 49.3 °F /  9.6 °C 43.3 °F /  6.3 °C 30.2in /  1023.9hPa Calm   2mph /  3.2km/h 80% 0in /  0.0mm 236.00 W/m2
12:40 49.5 °F /  9.7 °C 43.5 °F /  6.4 °C 30.2in /  1023.9hPa ENE 6.9mph /  11.1km/h 7mph /  11.3km/h 80% 0in /  0.0mm 181.00 W/m2
12:45 49.5 °F /  9.7 °C 43.5 °F /  6.4 °C 30.2in /  1023.9hPa ENE 0.9mph /  1.4km/h 9mph /  14.5km/h 80% 0in /  0.0mm 188.00 W/m2
12:50 49.3 °F /  9.6 °C 43.3 °F /  6.3 °C 30.2in /  1023.9hPa ENE 6.9mph /  11.1km/h 8mph /  12.9km/h 80% 0in /  0.0mm 204.00 W/m2
12:55 49.1 °F /  9.5 °C 42.8 °F /  6.0 °C 30.2in /  1023.9hPa ENE 4.9mph /  7.9km/h 10mph /  16.1km/h 79% 0in /  0.0mm 216.00 W/m2
13:00 49.1 °F /  9.5 °C 42.8 °F /  6.0 °C 30.2in /  1023.9hPa NE 4mph /  6.4km/h 11mph /  17.7km/h 79% 0in /  0.0mm 204.00 W/m2
13:05 49.1 °F /  9.5 °C 42.8 °F /  6.0 °C 30.2in /  1023.6hPa SE 4mph /  6.4km/h 6mph /  9.7km/h 79% 0in /  0.0mm 186.00 W/m2
13:10 49.3 °F /  9.6 °C 42.8 °F /  6.0 °C 30.2in /  1023.9hPa ENE 2.9mph /  4.7km/h 6mph /  9.7km/h 78% 0in /  0.0mm 172.00 W/m2
13:15 49.1 °F /  9.5 °C 42.6 °F /  5.9 °C 30.2in /  1023.9hPa ESE 2mph /  3.2km/h 6mph /  9.7km/h 78% 0in /  0.0mm 176.00 W/m2
13:20 49.3 °F /  9.6 °C 42.8 °F /  6.0 °C 30.2in /  1023.9hPa ENE 8.1mph /  13.0km/h 8mph /  12.9km/h 78% 0in /  0.0mm 190.00 W/m2
13:25 49.5 °F /  9.7 °C 43.2 °F /  6.2 °C 30.2in /  1023.9hPa Calm   3mph /  4.8km/h 79% 0in /  0.0mm 199.00 W/m2
13:30 49.5 °F /  9.7 °C 42.8 °F /  6.0 °C 30.2in /  1023.9hPa ESE 4.9mph /  7.9km/h 8mph /  12.9km/h 78% 0in /  0.0mm 199.00 W/m2
13:35 49.3 °F /  9.6 °C 42.8 °F /  6.0 °C 30.2in /  1023.9hPa ENE 10.1mph /  16.3km/h 10mph /  16.1km/h 78% 0in /  0.0mm 200.00 W/m2
13:40 49.1 °F /  9.5 °C 42.3 °F /  5.7 °C 30.2in /  1023.9hPa ESE 2.9mph /  4.7km/h 7mph /  11.3km/h 77% 0in /  0.0mm 204.00 W/m2
13:45 49.3 °F /  9.6 °C 42.4 °F /  5.8 °C 30.2in /  1023.9hPa SE 2.9mph /  4.7km/h 9mph /  14.5km/h 77% 0in /  0.0mm 204.00 W/m2
13:50 49.5 °F /  9.7 °C 42.8 °F /  6.0 °C 30.2in /  1023.9hPa ESE 6.9mph /  11.1km/h 8mph /  12.9km/h 78% 0in /  0.0mm 258.00 W/m2
13:55 49.8 °F /  9.9 °C 43.2 °F /  6.2 °C 30.2in /  1023.9hPa East 4mph /  6.4km/h 4mph /  6.4km/h 78% 0in /  0.0mm 283.00 W/m2
14:00 50.5 °F /  10.3 °C 43.9 °F /  6.6 °C 30.2in /  1023.9hPa ESE 4.9mph /  7.9km/h 9mph /  14.5km/h 78% 0in /  0.0mm 236.00 W/m2
14:05 50.5 °F /  10.3 °C 43.3 °F /  6.3 °C 30.2in /  1023.9hPa ESE 4.9mph /  7.9km/h 9mph /  14.5km/h 76% 0in /  0.0mm 216.00 W/m2
14:10 50.4 °F /  10.2 °C 43.2 °F /  6.2 °C 30.2in /  1023.9hPa NE 2.9mph /  4.7km/h 7mph /  11.3km/h 76% 0in /  0.0mm 190.00 W/m2
14:15 50.4 °F /  10.2 °C 43.3 °F /  6.3 °C 30.2in /  1023.9hPa NE 2.9mph /  4.7km/h 6mph /  9.7km/h 77% 0in /  0.0mm 192.00 W/m2
14:20 50.2 °F /  10.1 °C 43 °F /  6.1 °C 30.2in /  1023.9hPa NE 2mph /  3.2km/h 5mph /  8.0km/h 76% 0in /  0.0mm 239.00 W/m2
14:25 50.4 °F /  10.2 °C 43.2 °F /  6.2 °C 30.2in /  1023.9hPa Calm   4mph /  6.4km/h 76% 0in /  0.0mm 227.00 W/m2
14:30 50.7 °F /  10.4 °C 43.7 °F /  6.5 °C 30.2in /  1023.9hPa Calm   3mph /  4.8km/h 77% 0in /  0.0mm 171.00 W/m2
14:35 50.5 °F /  10.3 °C 43.3 °F /  6.3 °C 30.2in /  1023.6hPa ENE 0.9mph /  1.4km/h 10mph /  16.1km/h 76% 0in /  0.0mm 121.00 W/m2
14:40 50.5 °F /  10.3 °C 43.3 °F /  6.3 °C 30.2in /  1023.6hPa ENE 2mph /  3.2km/h 6mph /  9.7km/h 76% 0in /  0.0mm 123.00 W/m2
14:45 50.2 °F /  10.1 °C 42.6 °F /  5.9 °C 30.2in /  1023.6hPa ENE 4.9mph /  7.9km/h 12mph /  19.3km/h 75% 0in /  0.0mm 125.00 W/m2
14:50 49.8 °F /  9.9 °C 41.9 °F /  5.5 °C 30.2in /  1023.6hPa ESE 6.9mph /  11.1km/h 7mph /  11.3km/h 74% 0in /  0.0mm 127.00 W/m2
14:55 49.8 °F /  9.9 °C 41.9 °F /  5.5 °C 30.2in /  1023.6hPa ESE 2mph /  3.2km/h 12mph /  19.3km/h 74% 0in /  0.0mm 113.00 W/m2
15:00 49.8 °F /  9.9 °C 41.9 °F /  5.5 °C 30.2in /  1023.6hPa Calm   7mph /  11.3km/h 74% 0in /  0.0mm 83.00 W/m2
15:05 49.6 °F /  9.8 °C 42.1 °F /  5.6 °C 30.2in /  1023.6hPa East 2mph /  3.2km/h 13mph /  20.9km/h 75% 0in /  0.0mm 76.00 W/m2
15:10 49.5 °F /  9.7 °C 41.9 °F /  5.5 °C 30.2in /  1023.6hPa NE 2mph /  3.2km/h 4mph /  6.4km/h 75% 0in /  0.0mm 70.00 W/m2
15:15 49.3 °F /  9.6 °C 42.1 °F /  5.6 °C 30.2in /  1023.6hPa ENE 2mph /  3.2km/h 9mph /  14.5km/h 76% 0in /  0.0mm 62.00 W/m2
15:20 49.3 °F /  9.6 °C 42.1 °F /  5.6 °C 30.2in /  1023.6hPa East 4.9mph /  7.9km/h 7mph /  11.3km/h 76% 0in /  0.0mm 56.00 W/m2
15:25 49.3 °F /  9.6 °C 42.1 °F /  5.6 °C 30.2in /  1023.6hPa East 0.9mph /  1.4km/h 12mph /  19.3km/h 76% 0in /  0.0mm 51.00 W/m2
15:30 49.1 °F /  9.5 °C 41.9 °F /  5.5 °C 30.2in /  1023.6hPa ENE 2.9mph /  4.7km/h 10mph /  16.1km/h 76% 0in /  0.0mm 49.00 W/m2
15:49 48.7 °F /  9.3 °C 41.9 °F /  5.5 °C 30.2in /  1023.6hPa ESE 4mph /  6.4km/h 7mph /  11.3km/h 77% 0in /  0.0mm 40.00 W/m2
15:50 48.7 °F /  9.3 °C 41.9 °F /  5.5 °C 30.2in /  1023.6hPa East 6mph /  9.7km/h 7mph /  11.3km/h 77% 0in /  0.0mm 40.00 W/m2
15:55 48.6 °F /  9.2 °C 42.1 °F /  5.6 °C 30.2in /  1023.6hPa East 4.9mph /  7.9km/h 5mph /  8.0km/h 78% 0in /  0.0mm 35.00 W/m2
16:00 48.6 °F /  9.2 °C 42.1 °F /  5.6 °C 30.2in /  1023.6hPa East 4.9mph /  7.9km/h 9mph /  14.5km/h 78% 0in /  0.0mm 28.00 W/m2
16:05 48.6 °F /  9.2 °C 42.1 °F /  5.6 °C 30.2in /  1023.6hPa NE 4mph /  6.4km/h 7mph /  11.3km/h 78% 0in /  0.0mm 25.00 W/m2
16:10 48.4 °F /  9.1 °C 41.9 °F /  5.5 °C 30.2in /  1023.6hPa East 0.9mph /  1.4km/h 10mph /  16.1km/h 78% 0in /  0.0mm 26.00 W/m2
16:15 48.4 °F /  9.1 °C 42.3 °F /  5.7 °C 30.2in /  1023.2hPa NE 0.9mph /  1.4km/h 3mph /  4.8km/h 79% 0in /  0.0mm 25.00 W/m2
16:20 48.2 °F /  9.0 °C 42.1 °F /  5.6 °C 30.2in /  1023.2hPa ENE 0.9mph /  1.4km/h 3mph /  4.8km/h 79% 0in /  0.0mm 23.00 W/m2
16:25 48.2 °F /  9.0 °C 42.1 °F /  5.6 °C 30.2in /  1023.2hPa ENE 4.9mph /  7.9km/h 6mph /  9.7km/h 79% 0in /  0.0mm 19.00 W/m2
16:30 48 °F /  8.9 °C 42.1 °F /  5.6 °C 30.2in /  1023.2hPa ENE 4mph /  6.4km/h 5mph /  8.0km/h 80% 0in /  0.0mm 14.00 W/m2
16:35 47.8 °F /  8.8 °C 41.9 °F /  5.5 °C 30.2in /  1023.6hPa NE 8.9mph /  14.3km/h 10mph /  16.1km/h 80% 0in /  0.0mm 11.00 W/m2
16:40 47.8 °F /  8.8 °C 41.9 °F /  5.5 °C 30.2in /  1023.2hPa ENE 2.9mph /  4.7km/h 8mph /  12.9km/h 80% 0in /  0.0mm 7.00 W/m2
16:45 47.7 °F /  8.7 °C 41.7 °F /  5.4 °C 30.2in /  1023.6hPa Calm   10mph /  16.1km/h 80% 0in /  0.0mm 0.00 W/m2
16:50 47.5 °F /  8.6 °C 41.5 °F /  5.3 °C 30.2in /  1023.2hPa NE 4.9mph /  7.9km/h 8mph /  12.9km/h 80% 0in /  0.0mm 0.00 W/m2
16:55 47.3 °F /  8.5 °C 41.4 °F /  5.2 °C 30.2in /  1023.2hPa Calm   10mph /  16.1km/h 80% 0in /  0.0mm 0.00 W/m2
17:00 47.3 °F /  8.5 °C 41.7 °F /  5.4 °C 30.2in /  1023.2hPa ENE 6mph /  9.7km/h 7mph /  11.3km/h 81% 0in /  0.0mm 0.00 W/m2
17:05 47.1 °F /  8.4 °C 41.5 °F /  5.3 °C 30.2in /  1023.2hPa NE 2.9mph /  4.7km/h 5mph /  8.0km/h 81% 0in /  0.0mm 0.00 W/m2
17:10 47.1 °F /  8.4 °C 41.5 °F /  5.3 °C 30.2in /  1023.2hPa East 4.9mph /  7.9km/h 7mph /  11.3km/h 81% 0in /  0.0mm 0.00 W/m2
17:15 46.9 °F /  8.3 °C 41.4 °F /  5.2 °C 30.2in /  1023.2hPa NNE 6mph /  9.7km/h 7mph /  11.3km/h 81% 0in /  0.0mm 0.00 W/m2
17:20 46.9 °F /  8.3 °C 41.4 °F /  5.2 °C 30.2in /  1023.2hPa ENE 6mph /  9.7km/h 10mph /  16.1km/h 81% 0in /  0.0mm 0.00 W/m2
17:25 46.9 °F /  8.3 °C 41.4 °F /  5.2 °C 30.2in /  1023.2hPa ENE 4.9mph /  7.9km/h 7mph /  11.3km/h 81% 0in /  0.0mm 0.00 W/m2
17:30 46.8 °F /  8.2 °C 41.2 °F /  5.1 °C 30.2in /  1023.2hPa East 4.9mph /  7.9km/h 6mph /  9.7km/h 81% 0in /  0.0mm 0.00 W/m2
17:35 46.8 °F /  8.2 °C 41.5 °F /  5.3 °C 30.2in /  1023.2hPa ESE 2mph /  3.2km/h 9mph /  14.5km/h 82% 0in /  0.0mm 0.00 W/m2
17:40 46.8 °F /  8.2 °C 41.5 °F /  5.3 °C 30.2in /  1023.2hPa East 2mph /  3.2km/h 5mph /  8.0km/h 82% 0in /  0.0mm 0.00 W/m2
17:45 46.6 °F /  8.1 °C 41.4 °F /  5.2 °C 30.2in /  1023.6hPa ESE 4mph /  6.4km/h 8mph /  12.9km/h 82% 0in /  0.0mm 0.00 W/m2
17:50 46.6 °F /  8.1 °C 41.4 °F /  5.2 °C 30.2in /  1023.6hPa ESE 2.9mph /  4.7km/h 10mph /  16.1km/h 82% 0in /  0.0mm 0.00 W/m2
17:55 46.6 °F /  8.1 °C 41.7 °F /  5.4 °C 30.2in /  1023.6hPa East 2.9mph /  4.7km/h 9mph /  14.5km/h 83% 0in /  0.0mm 0.00 W/m2
18:00 46.6 °F /  8.1 °C 41.7 °F /  5.4 °C 30.2in /  1023.6hPa East 2mph /  3.2km/h 7mph /  11.3km/h 83% 0in /  0.0mm 0.00 W/m2
18:05 46.4 °F /  8.0 °C 41.5 °F /  5.3 °C 30.2in /  1023.6hPa NNE 2mph /  3.2km/h 8mph /  12.9km/h 83% 0in /  0.0mm 0.00 W/m2
18:10 46.4 °F /  8.0 °C 41.5 °F /  5.3 °C 30.2in /  1023.6hPa Calm   5mph /  8.0km/h 83% 0in /  0.0mm 0.00 W/m2
18:15 46.4 °F /  8.0 °C 41.5 °F /  5.3 °C 30.2in /  1023.6hPa NNE 2.9mph /  4.7km/h 3mph /  4.8km/h 83% 0in /  0.0mm 0.00 W/m2
18:20 46.4 °F /  8.0 °C 41.9 °F /  5.5 °C 30.2in /  1023.6hPa ENE 6mph /  9.7km/h 6mph /  9.7km/h 84% 0in /  0.0mm 0.00 W/m2
18:25 46.2 °F /  7.9 °C 41.7 °F /  5.4 °C 30.2in /  1023.6hPa ESE 2.9mph /  4.7km/h 4mph /  6.4km/h 84% 0in /  0.0mm 0.00 W/m2
18:30 46.2 °F /  7.9 °C 41.7 °F /  5.4 °C 30.2in /  1023.6hPa ESE 2.9mph /  4.7km/h 9mph /  14.5km/h 84% 0in /  0.0mm 0.00 W/m2
18:35 46.4 °F /  8.0 °C 41.9 °F /  5.5 °C 30.2in /  1023.6hPa ENE 4.9mph /  7.9km/h 7mph /  11.3km/h 84% 0in /  0.0mm 0.00 W/m2
18:40 46.2 °F /  7.9 °C 41.7 °F /  5.4 °C 30.2in /  1023.6hPa ENE 0.9mph /  1.4km/h 6mph /  9.7km/h 84% 0in /  0.0mm 0.00 W/m2
18:45 46.2 °F /  7.9 °C 41.7 °F /  5.4 °C 30.2in /  1023.6hPa ESE 0.9mph /  1.4km/h 4mph /  6.4km/h 84% 0in /  0.0mm 0.00 W/m2
18:50 46.4 °F /  8.0 °C 41.9 °F /  5.5 °C 30.2in /  1023.6hPa Calm   3mph /  4.8km/h 84% 0in /  0.0mm 0.00 W/m2
18:55 46.2 °F /  7.9 °C 41.7 °F /  5.4 °C 30.2in /  1023.6hPa ENE 2mph /  3.2km/h 7mph /  11.3km/h 84% 0in /  0.0mm 0.00 W/m2
19:00 46.2 °F /  7.9 °C 41.9 °F /  5.5 °C 30.2in /  1023.6hPa East 8.1mph /  13.0km/h 9mph /  14.5km/h 85% 0in /  0.0mm 0.00 W/m2
19:05 46.2 °F /  7.9 °C 41.9 °F /  5.5 °C 30.2in /  1023.6hPa ENE 2mph /  3.2km/h 5mph /  8.0km/h 85% 0in /  0.0mm 0.00 W/m2
19:10 46.2 °F /  7.9 °C 41.9 °F /  5.5 °C 30.2in /  1023.9hPa East 2mph /  3.2km/h 5mph /  8.0km/h 85% 0in /  0.0mm 0.00 W/m2
19:15 46.2 °F /  7.9 °C 41.9 °F /  5.5 °C 30.2in /  1023.6hPa East 0.9mph /  1.4km/h 4mph /  6.4km/h 85% 0in /  0.0mm 0.00 W/m2
19:20 46.2 °F /  7.9 °C 41.9 °F /  5.5 °C 30.2in /  1023.6hPa NE 6.9mph /  11.1km/h 10mph /  16.1km/h 85% 0in /  0.0mm 0.00 W/m2
19:25 46.2 °F /  7.9 °C 41.9 °F /  5.5 °C 30.2in /  1023.6hPa East 0.9mph /  1.4km/h 7mph /  11.3km/h 85% 0in /  0.0mm 0.00 W/m2
19:30 46.2 °F /  7.9 °C 41.9 °F /  5.5 °C 30.2in /  1023.6hPa ESE 4mph /  6.4km/h 7mph /  11.3km/h 85% 0in /  0.0mm 0.00 W/m2
19:35 46.2 °F /  7.9 °C 42.3 °F /  5.7 °C 30.2in /  1023.9hPa Calm   7mph /  11.3km/h 86% 0in /  0.0mm 0.00 W/m2
19:40 46 °F /  7.8 °C 42.1 °F /  5.6 °C 30.2in /  1023.6hPa East 2mph /  3.2km/h 5mph /  8.0km/h 86% 0in /  0.0mm 0.00 W/m2
19:45 46 °F /  7.8 °C 42.1 °F /  5.6 °C 30.2in /  1023.6hPa NE 2.9mph /  4.7km/h 11mph /  17.7km/h 86% 0in /  0.0mm 0.00 W/m2
19:50 46 °F /  7.8 °C 42.1 °F /  5.6 °C 30.2in /  1023.6hPa East 4mph /  6.4km/h 9mph /  14.5km/h 86% 0in /  0.0mm 0.00 W/m2
19:55 46 °F /  7.8 °C 42.1 °F /  5.6 °C 30.2in /  1023.6hPa ENE 0.9mph /  1.4km/h 10mph /  16.1km/h 86% 0in /  0.0mm 0.00 W/m2
20:00 46 °F /  7.8 °C 42.1 °F /  5.6 °C 30.2in /  1023.6hPa ESE 4.9mph /  7.9km/h 8mph /  12.9km/h 86% 0in /  0.0mm 0.00 W/m2
20:05 46 °F /  7.8 °C 42.1 °F /  5.6 °C 30.2in /  1023.6hPa ENE 2.9mph /  4.7km/h 9mph /  14.5km/h 86% 0in /  0.0mm 0.00 W/m2
20:10 46 °F /  7.8 °C 42.1 °F /  5.6 °C 30.2in /  1023.6hPa ESE 0.9mph /  1.4km/h 2mph /  3.2km/h 86% 0in /  0.0mm 0.00 W/m2
20:15 45.9 °F /  7.7 °C 42.3 °F /  5.7 °C 30.2in /  1023.6hPa ENE 2mph /  3.2km/h 7mph /  11.3km/h 87% 0in /  0.0mm 0.00 W/m2
20:20 46 °F /  7.8 °C 42.4 °F /  5.8 °C 30.2in /  1023.6hPa ESE 2mph /  3.2km/h 7mph /  11.3km/h 87% 0in /  0.0mm 0.00 W/m2
20:25 45.9 °F /  7.7 °C 42.3 °F /  5.7 °C 30.2in /  1023.6hPa Calm   9mph /  14.5km/h 87% 0in /  0.0mm 0.00 W/m2
20:30 45.9 °F /  7.7 °C 42.3 °F /  5.7 °C 30.2in /  1023.6hPa ENE 4.9mph /  7.9km/h 6mph /  9.7km/h 87% 0in /  0.0mm 0.00 W/m2
20:35 45.9 °F /  7.7 °C 42.3 °F /  5.7 °C 30.2in /  1023.6hPa East 2mph /  3.2km/h 10mph /  16.1km/h 87% 0in /  0.0mm 0.00 W/m2
20:40 45.9 °F /  7.7 °C 42.3 °F /  5.7 °C 30.2in /  1023.6hPa ESE 2mph /  3.2km/h 7mph /  11.3km/h 87% 0in /  0.0mm 0.00 W/m2
20:45 45.9 °F /  7.7 °C 42.3 °F /  5.7 °C 30.2in /  1023.6hPa East 2mph /  3.2km/h 9mph /  14.5km/h 87% 0in /  0.0mm 0.00 W/m2
20:50 45.9 °F /  7.7 °C 42.3 °F /  5.7 °C 30.2in /  1023.6hPa ESE 2.9mph /  4.7km/h 7mph /  11.3km/h 87% 0in /  0.0mm 0.00 W/m2
20:55 45.9 °F /  7.7 °C 42.3 °F /  5.7 °C 30.2in /  1023.6hPa ENE 8.1mph /  13.0km/h 10mph /  16.1km/h 87% 0in /  0.0mm 0.00 W/m2
21:00 46 °F /  7.8 °C 42.4 °F /  5.8 °C 30.2in /  1023.6hPa SE 6mph /  9.7km/h 8mph /  12.9km/h 87% 0in /  0.0mm 0.00 W/m2
21:05 46 °F /  7.8 °C 42.1 °F /  5.6 °C 30.2in /  1023.9hPa East 0.9mph /  1.4km/h 11mph /  17.7km/h 86% 0in /  0.0mm 0.00 W/m2
21:10 46 °F /  7.8 °C 42.1 °F /  5.6 °C 30.2in /  1023.6hPa ENE 2.9mph /  4.7km/h 13mph /  20.9km/h 86% 0in /  0.0mm 0.00 W/m2
21:15 46 °F /  7.8 °C 42.1 °F /  5.6 °C 30.2in /  1023.6hPa NE 4mph /  6.4km/h 9mph /  14.5km/h 86% 0in /  0.0mm 0.00 W/m2
21:20 46 °F /  7.8 °C 42.1 °F /  5.6 °C 30.2in /  1023.6hPa NNE 2mph /  3.2km/h 10mph /  16.1km/h 86% 0in /  0.0mm 0.00 W/m2
21:25 45.9 °F /  7.7 °C 41.9 °F /  5.5 °C 30.2in /  1023.6hPa East 11mph /  17.7km/h 11mph /  17.7km/h 86% 0in /  0.0mm 0.00 W/m2
21:30 45.9 °F /  7.7 °C 41.9 °F /  5.5 °C 30.2in /  1023.6hPa NE 0.9mph /  1.4km/h 10mph /  16.1km/h 86% 0in /  0.0mm 0.00 W/m2
21:35 45.9 °F /  7.7 °C 41.9 °F /  5.5 °C 30.2in /  1023.9hPa East 2mph /  3.2km/h 5mph /  8.0km/h 86% 0in /  0.0mm 0.00 W/m2
21:40 45.9 °F /  7.7 °C 41.9 °F /  5.5 °C 30.2in /  1023.6hPa East 8.9mph /  14.3km/h 10mph /  16.1km/h 86% 0in /  0.0mm 0.00 W/m2
21:45 45.9 °F /  7.7 °C 41.9 °F /  5.5 °C 30.2in /  1023.6hPa ENE 2mph /  3.2km/h 10mph /  16.1km/h 86% 0in /  0.0mm 0.00 W/m2
21:50 46 °F /  7.8 °C 42.1 °F /  5.6 °C 30.2in /  1023.6hPa Calm   10mph /  16.1km/h 86% 0in /  0.0mm 0.00 W/m2
21:55 46 °F /  7.8 °C 42.1 °F /  5.6 °C 30.2in /  1023.6hPa ENE 8.1mph /  13.0km/h 11mph /  17.7km/h 86% 0in /  0.0mm 0.00 W/m2
22:00 45.9 °F /  7.7 °C 41.5 °F /  5.3 °C 30.2in /  1023.6hPa SE 4.9mph /  7.9km/h 7mph /  11.3km/h 85% 0in /  0.0mm 0.00 W/m2
22:05 45.9 °F /  7.7 °C 41.5 °F /  5.3 °C 30.2in /  1023.6hPa ENE 0.9mph /  1.4km/h 3mph /  4.8km/h 85% 0in /  0.0mm 0.00 W/m2
22:10 45.9 °F /  7.7 °C 41.5 °F /  5.3 °C 30.2in /  1023.6hPa NNE 2mph /  3.2km/h 7mph /  11.3km/h 85% 0in /  0.0mm 0.00 W/m2
22:15 45.9 °F /  7.7 °C 41.5 °F /  5.3 °C 30.2in /  1023.6hPa ESE 6.9mph /  11.1km/h 11mph /  17.7km/h 85% 0in /  0.0mm 0.00 W/m2
22:20 45.9 °F /  7.7 °C 41.5 °F /  5.3 °C 30.2in /  1023.6hPa East 4.9mph /  7.9km/h 14mph /  22.5km/h 85% 0in /  0.0mm 0.00 W/m2
22:25 45.9 °F /  7.7 °C 41.5 °F /  5.3 °C 30.2in /  1023.6hPa ENE 6mph /  9.7km/h 14mph /  22.5km/h 85% 0in /  0.0mm 0.00 W/m2
22:30 45.9 °F /  7.7 °C 41.5 °F /  5.3 °C 30.2in /  1023.6hPa NE 6.9mph /  11.1km/h 7mph /  11.3km/h 85% 0in /  0.0mm 0.00 W/m2
22:35 45.9 °F /  7.7 °C 41.5 °F /  5.3 °C 30.2in /  1023.6hPa ENE 4mph /  6.4km/h 12mph /  19.3km/h 85% 0in /  0.0mm 0.00 W/m2
22:40 45.9 °F /  7.7 °C 41.5 °F /  5.3 °C 30.2in /  1023.6hPa East 4mph /  6.4km/h 12mph /  19.3km/h 85% 0in /  0.0mm 0.00 W/m2
22:45 45.9 °F /  7.7 °C 41.5 °F /  5.3 °C 30.2in /  1023.6hPa East 2mph /  3.2km/h 6mph /  9.7km/h 85% 0in /  0.0mm 0.00 W/m2
22:50 45.9 °F /  7.7 °C 41.5 °F /  5.3 °C 30.2in /  1023.6hPa East 2.9mph /  4.7km/h 11mph /  17.7km/h 85% 0in /  0.0mm 0.00 W/m2
22:55 45.7 °F /  7.6 °C 41.4 °F /  5.2 °C 30.2in /  1023.6hPa ESE 4.9mph /  7.9km/h 9mph /  14.5km/h 85% 0in /  0.0mm 0.00 W/m2
23:00 45.9 °F /  7.7 °C 41.5 °F /  5.3 °C 30.2in /  1023.6hPa ESE 0.9mph /  1.4km/h 10mph /  16.1km/h 85% 0in /  0.0mm 0.00 W/m2
23:05 45.7 °F /  7.6 °C 41.4 °F /  5.2 °C 30.2in /  1023.6hPa NE 4mph /  6.4km/h 8mph /  12.9km/h 85% 0in /  0.0mm 0.00 W/m2
23:10 45.7 °F /  7.6 °C 41.4 °F /  5.2 °C 30.2in /  1023.6hPa NE 2mph /  3.2km/h 11mph /  17.7km/h 85% 0in /  0.0mm 0.00 W/m2
23:15 45.7 °F /  7.6 °C 41.4 °F /  5.2 °C 30.2in /  1023.6hPa NE 8.1mph /  13.0km/h 9mph /  14.5km/h 85% 0in /  0.0mm 0.00 W/m2
23:20 45.7 °F /  7.6 °C 41.4 °F /  5.2 °C 30.2in /  1023.6hPa NE 2mph /  3.2km/h 7mph /  11.3km/h 85% 0in /  0.0mm 0.00 W/m2
23:25 45.7 °F /  7.6 °C 41.4 °F /  5.2 °C 30.2in /  1023.9hPa ENE 2.9mph /  4.7km/h 11mph /  17.7km/h 85% 0in /  0.0mm 0.00 W/m2
23:30 45.7 °F /  7.6 °C 41.4 °F /  5.2 °C 30.2in /  1023.6hPa East 2mph /  3.2km/h 9mph /  14.5km/h 85% 0in /  0.0mm 0.00 W/m2
23:35 45.7 °F /  7.6 °C 41.4 °F /  5.2 °C 30.2in /  1023.6hPa NNE 2.9mph /  4.7km/h 10mph /  16.1km/h 85% 0in /  0.0mm 0.00 W/m2
23:40 45.7 °F /  7.6 °C 41.4 °F /  5.2 °C 30.2in /  1023.6hPa NE 2mph /  3.2km/h 7mph /  11.3km/h 85% 0in /  0.0mm 0.00 W/m2
23:45 45.7 °F /  7.6 °C 41.4 °F /  5.2 °C 30.2in /  1023.6hPa East 2.9mph /  4.7km/h 9mph /  14.5km/h 85% 0in /  0.0mm 0.00 W/m2
23:50 45.5 °F /  7.5 °C 41.2 °F /  5.1 °C 30.2in /  1023.9hPa ESE 2mph /  3.2km/h 9mph /  14.5km/h 85% 0in /  0.0mm 0.00 W/m2
23:55 45.7 °F /  7.6 °C 41.7 °F /  5.4 °C 30.2in /  1023.6hPa East 0.9mph /  1.4km/h 9mph /  14.5km/h 86% 0in /  0.0mm 0.00 W/m2